Time;durP1;ratioP1;P1;durP2;ratioP2;P2;SDS_P1;SDS_P2;PMS_P1;PMS_P2;Temp;Humidity;BMP_temperature;BMP_pressure;BME280_temperature;BME280_humidity;BME280_pressure;Samples;Min_cycle;Max_cycle;Signal;HPM_P1;HPM_P2
2024/02/12 00:02:18;;;;;;;26.17;11.73;;;;;;;4.47;100.00;99013.44;5046541;28;19980;-78
2024/02/12 00:04:45;;;;;;;31.67;12.95;;;;;;;4.41;100.00;99011.47;5046765;28;20079;-76
2024/02/12 00:07:12;;;;;;;26.65;13.60;;;;;;;4.41;100.00;99014.09;5048292;28;20053;-76
2024/02/12 00:09:37;;;;;;;27.63;12.52;;;;;;;4.38;100.00;99014.44;5041268;28;20411;-76
2024/02/12 00:12:03;;;;;;;51.88;17.98;;;;;;;4.38;100.00;99006.53;5037777;28;20030;-77
2024/02/12 00:14:28;;;;;;;23.02;11.13;;;;;;;4.38;100.00;99017.09;5048431;28;20079;-77
2024/02/12 00:16:54;;;;;;;33.77;14.37;;;;;;;4.40;100.00;99017.72;5042072;28;20064;-79
2024/02/12 00:19:21;;;;;;;21.38;9.98;;;;;;;4.38;100.00;99017.09;5038339;28;20412;-78
2024/02/12 00:21:48;;;;;;;27.83;11.98;;;;;;;4.42;100.00;99021.03;5056889;28;20494;-77
2024/02/12 00:24:15;;;;;;;20.83;11.32;;;;;;;4.43;100.00;99031.44;5045049;28;20032;-78
2024/02/12 00:26:41;;;;;;;24.83;11.95;;;;;;;4.48;100.00;99036.25;5051414;28;20112;-77
2024/02/12 00:29:08;;;;;;;32.90;15.18;;;;;;;4.42;100.00;99026.31;5050226;28;20066;-77
2024/02/12 00:31:37;;;;;;;30.25;13.23;;;;;;;4.42;100.00;99026.31;5058569;28;20051;-77
2024/02/12 00:34:03;;;;;;;30.52;13.65;;;;;;;4.41;100.00;99022.03;5066826;28;20514;-77
2024/02/12 00:36:28;;;;;;;34.42;14.02;;;;;;;4.41;100.00;99025.50;5058540;28;20104;-77
2024/02/12 00:38:54;;;;;;;26.43;13.10;;;;;;;4.38;100.00;99017.91;5047605;28;20826;-78
2024/02/12 00:41:22;;;;;;;30.25;13.15;;;;;;;4.38;100.00;99017.09;5055668;28;20411;-78
2024/02/12 00:43:49;;;;;;;34.53;13.85;;;;;;;4.39;100.00;99019.53;5049728;28;20037;-78
2024/02/12 00:46:18;;;;;;;36.63;15.05;;;;;;;4.42;100.00;99021.03;5053654;28;20126;-77
2024/02/12 00:48:45;;;;;;;24.23;12.68;;;;;;;4.41;100.00;99019.41;5030811;28;20052;-77
2024/02/12 00:51:12;;;;;;;30.17;13.25;;;;;;;4.47;100.00;99036.38;5046687;28;20058;-77
2024/02/12 00:53:40;;;;;;;28.17;13.20;;;;;;;4.45;100.00;99031.28;5050584;28;20164;-78
2024/02/12 00:56:06;;;;;;;37.08;14.10;;;;;;;4.40;100.00;99026.50;5048584;28;20040;-77
2024/02/12 00:58:32;;;;;;;;;;;;;;;4.49;100.00;99037.06;5048103;28;20029;-78
2024/02/12 01:00:57;;;;;;;25.50;12.73;;;;;;;4.42;100.00;99023.69;5053681;28;19912;-78
2024/02/12 01:03:22;;;;;;;30.55;13.60;;;;;;;4.41;100.00;99024.69;5048190;28;20029;-77
2024/02/12 01:05:49;;;;;;;24.80;12.23;;;;;;;4.41;100.00;99027.31;5051098;28;20048;-78
2024/02/12 01:08:15;;;;;;;24.70;12.38;;;;;;;4.46;100.00;99037.41;5047479;28;20041;-77
2024/02/12 01:10:40;;;;;;;;;;;;;;;4.49;100.00;99040.53;5056199;28;20905;-77
2024/02/12 01:13:05;;;;;;;26.65;12.15;;;;;;;4.51;100.00;99043.81;5034035;28;19955;-77
2024/02/12 01:15:31;;;;;;;22.03;11.33;;;;;;;4.50;100.00;99036.91;5050346;28;20408;-78
2024/02/12 01:17:57;;;;;;;20.23;11.20;;;;;;;4.50;100.00;99034.25;5033432;28;20051;-78
2024/02/12 01:20:23;;;;;;;23.40;11.65;;;;;;;4.50;100.00;99036.91;5050071;28;20286;-78
2024/02/12 01:22:51;;;;;;;23.52;12.18;;;;;;;4.53;100.00;99041.03;5046015;28;20622;-78
2024/02/12 01:25:18;;;;;;;26.30;11.63;;;;;;;4.48;100.00;99036.25;5046170;28;20033;-78
2024/02/12 01:27:44;;;;;;;27.63;11.93;;;;;;;4.52;100.00;99040.22;5029458;28;20029;-77
2024/02/12 01:30:10;;;;;;;28.92;12.40;;;;;;;4.50;100.00;99033.44;5043877;28;20037;-78
2024/02/12 01:32:35;;;;;;;27.55;13.35;;;;;;;4.50;100.00;99044.84;5051343;28;20039;-78
2024/02/12 01:35:01;;;;;;;25.40;11.73;;;;;;;4.49;100.00;99043.16;5060217;28;20203;-77
2024/02/12 01:37:27;;;;;;;41.35;15.52;;;;;;;4.43;100.00;99035.91;5054165;28;20036;-77
2024/02/12 01:39:53;;;;;;;69.55;20.63;;;;;;;4.43;100.00;99038.56;5049091;28;20448;-77
2024/02/12 01:42:19;;;;;;;37.03;14.88;;;;;;;4.40;100.00;99030.94;5048672;28;20041;-77
2024/02/12 01:45:00;;;;;;;33.63;13.60;;;;;;;4.42;100.00;99043.03;5040572;28;20037;-78
2024/02/12 01:47:26;;;;;;;29.90;13.13;;;;;;;4.43;100.00;99036.72;5030881;28;20029;-78
2024/02/12 01:49:57;;;;;;;33.45;13.63;;;;;;;4.42;100.00;99039.53;5054838;28;20037;-78
2024/02/12 01:52:23;;;;;;;29.08;13.05;;;;;;;4.41;100.00;99044.00;5049731;28;20041;-78
2024/02/12 01:54:50;;;;;;;40.42;15.10;;;;;;;4.36;100.00;99035.75;5049830;28;20048;-77
2024/02/12 01:57:17;;;;;;;28.13;12.65;;;;;;;4.34;100.00;99036.91;5049982;28;20029;-77
2024/02/12 01:59:43;;;;;;;28.40;12.63;;;;;;;4.39;100.00;99035.41;5043778;28;20037;-77
2024/02/12 02:02:09;;;;;;;24.73;12.82;;;;;;;4.41;100.00;99040.53;5052138;28;20043;-77
2024/02/12 02:04:36;;;;;;;25.33;11.70;;;;;;;4.46;100.00;99054.06;5056712;28;20100;-78
2024/02/12 02:07:02;;;;;;;61.85;17.13;;;;;;;4.37;100.00;99039.19;5049294;28;20037;-79
2024/02/12 02:09:28;;;;;;;47.65;14.20;;;;;;;4.42;100.00;99047.47;5047776;28;20047;-77
2024/02/12 02:11:53;;;;;;;63.97;16.05;;;;;;;4.36;100.00;99040.19;5049288;28;20029;-77
2024/02/12 02:14:19;;;;;;;29.35;14.13;;;;;;;4.39;100.00;99045.97;5054892;28;20115;-78
2024/02/12 02:16:45;;;;;;;28.02;13.50;;;;;;;4.43;100.00;99057.88;5032953;28;20124;-77
2024/02/12 02:19:10;;;;;;;27.40;13.00;;;;;;;4.43;100.00;99057.06;5045068;28;20189;-78
2024/02/12 02:21:36;;;;;;;26.30;12.00;;;;;;;4.35;100.00;99054.38;5053262;28;20279;-77
2024/02/12 02:24:02;;;;;;;48.25;16.88;;;;;;;4.28;100.00;99053.38;5049570;28;20502;-77
2024/02/12 02:26:28;;;;;;;53.45;15.52;;;;;;;4.26;100.00;99056.22;5056199;28;20036;-77
2024/02/12 02:28:56;;;;;;;34.85;15.05;;;;;;;4.19;100.00;99044.63;5050822;28;20028;-77
2024/02/12 02:31:22;;;;;;;38.72;16.15;;;;;;;4.20;100.00;99060.31;5059179;28;20048;-78
2024/02/12 02:33:47;;;;;;;60.50;16.88;;;;;;;4.28;100.00;99066.59;5056902;28;20046;-78
2024/02/12 02:36:12;;;;;;;27.03;12.63;;;;;;;4.34;100.00;99071.25;5040143;28;20036;-77
2024/02/12 02:38:38;;;;;;;25.30;13.00;;;;;;;4.31;100.00;99071.56;5042845;28;20364;-77
2024/02/12 02:41:03;;;;;;;31.27;13.88;;;;;;;4.40;100.00;99091.72;5057424;28;20082;-78
2024/02/12 02:43:28;;;;;;;27.25;12.45;;;;;;;4.36;100.00;99075.38;5068638;28;20048;-76
2024/02/12 02:45:54;;;;;;;27.00;12.97;;;;;;;4.36;100.00;99078.00;5050695;28;20663;-76
2024/02/12 02:48:20;;;;;;;24.52;11.68;;;;;;;4.42;100.00;99077.38;5069095;28;21205;-78
2024/02/12 02:50:45;;;;;;;31.88;14.27;;;;;;;4.48;100.00;99083.00;5062385;28;20040;-77
2024/02/12 02:53:14;;;;;;;28.00;13.30;;;;;;;4.44;100.00;99082.47;5068158;28;20040;-78
2024/02/12 02:55:39;;;;;;;34.25;14.73;;;;;;;4.31;100.00;99074.19;5067107;28;20704;-77
2024/02/12 02:58:05;;;;;;;26.73;12.53;;;;;;;4.30;100.00;99083.94;5050869;28;20024;-77
2024/02/12 03:00:32;;;;;;;31.55;15.02;;;;;;;4.31;100.00;99090.91;5050393;28;20390;-77
2024/02/12 03:02:58;;;;;;;57.42;17.13;;;;;;;4.30;100.00;99091.03;5068445;28;20024;-77
2024/02/12 03:05:27;;;;;;;45.00;17.83;;;;;;;4.27;100.00;99088.75;5066548;28;20078;-77
2024/02/12 03:07:53;;;;;;;45.03;15.40;;;;;;;4.20;100.00;99083.28;5041755;28;20081;-77
2024/02/12 03:10:18;;;;;;;;;;;;;;;4.29;100.00;99097.34;5030338;28;20094;-78
2024/02/12 03:12:45;;;;;;;29.40;12.85;;;;;;;4.31;100.00;99104.09;5058844;28;20330;-77
2024/02/12 03:15:13;;;;;;;31.15;13.18;;;;;;;4.33;100.00;99107.41;5043881;28;20093;-76
2024/02/12 03:17:43;;;;;;;26.38;12.07;;;;;;;4.38;100.00;99114.84;5050090;28;20036;-77
2024/02/12 03:20:10;;;;;;;33.67;14.20;;;;;;;4.38;100.00;99120.13;5049998;28;20058;-78
2024/02/12 03:22:39;;;;;;;27.60;12.13;;;;;;;4.32;100.00;99108.38;5044596;28;20013;-77
2024/02/12 03:25:06;;;;;;;35.65;15.73;;;;;;;4.34;100.00;99110.88;5065256;28;20066;-78
2024/02/12 03:27:32;;;;;;;27.10;12.75;;;;;;;4.35;100.00;99113.34;5051438;28;20476;-77
2024/02/12 03:29:57;;;;;;;44.47;15.20;;;;;;;4.30;100.00;99109.53;5067639;28;20035;-78
2024/02/12 03:32:23;;;;;;;37.53;14.75;;;;;;;4.30;100.00;99109.53;5060134;28;20450;-78
2024/02/12 03:34:48;;;;;;;29.75;13.35;;;;;;;4.26;100.00;99119.63;5066308;28;20030;-78
2024/02/12 03:37:18;;;;;;;37.40;15.02;;;;;;;4.33;100.00;99117.97;5066175;28;20035;-78
2024/02/12 03:39:47;;;;;;;20.02;10.32;;;;;;;4.43;100.00;99128.41;5067425;28;20033;-77
2024/02/12 03:42:12;;;;;;;25.40;10.95;;;;;;;4.43;100.00;99118.66;5065741;28;20384;-78
2024/02/12 03:44:40;;;;;;;22.13;10.23;;;;;;;4.45;100.00;99113.22;5034824;28;20037;-78
2024/02/12 03:47:05;;;;;;;25.13;10.40;;;;;;;4.52;100.00;99116.84;5065636;28;20028;-78
2024/02/12 04:00:28;;;;;;;19.55;9.40;;;;;;;4.51;100.00;99109.91;5066631;28;20119;-77
2024/02/12 04:02:56;;;;;;;19.48;8.50;;;;;;;4.55;100.00;99116.53;5052484;28;20040;-77
2024/02/12 04:05:21;;;;;;;27.67;10.65;;;;;;;4.49;100.00;99105.78;5045849;28;20029;-78
2024/02/12 04:07:47;;;;;;;27.05;11.32;;;;;;;4.47;100.00;99108.56;5044801;28;20150;-77
2024/02/12 04:10:12;;;;;;;23.67;9.73;;;;;;;4.49;100.00;99109.22;5050997;28;20071;-78
2024/02/12 04:12:39;;;;;;;22.73;9.35;;;;;;;4.35;100.00;99096.66;5043065;28;20469;-78
2024/02/12 04:15:08;;;;;;;17.40;8.52;;;;;;;4.43;100.00;99101.97;5047238;28;20039;-77
2024/02/12 04:17:34;;;;;;;17.63;8.25;;;;;;;4.49;100.00;99111.88;5051028;28;20028;-77
2024/02/12 04:20:01;;;;;;;21.50;10.38;;;;;;;4.48;100.00;99110.25;5065405;28;20056;-77
2024/02/12 04:22:26;;;;;;;22.65;9.35;;;;;;;4.44;100.00;99103.63;5065252;28;20037;-77
2024/02/12 04:24:54;;;;;;;31.77;11.50;;;;;;;4.48;100.00;99112.88;5055489;28;20033;-77
2024/02/12 04:27:20;;;;;;;15.95;8.15;;;;;;;4.49;100.00;99114.53;5051139;28;20033;-77
2024/02/12 04:29:45;;;;;;;29.67;10.85;;;;;;;4.49;100.00;99108.41;5052263;28;20079;-77
2024/02/12 04:32:14;;;;;;;22.58;9.50;;;;;;;4.48;100.00;99115.53;5060579;28;20036;-78
2024/02/12 04:34:40;;;;;;;20.40;9.88;;;;;;;4.52;100.00;99113.34;5066515;28;20433;-77
2024/02/12 04:37:07;;;;;;;20.45;11.18;;;;;;;4.53;100.00;99118.50;5065481;28;20032;-78
2024/02/12 04:39:32;;;;;;;;;;;;;;;4.60;100.00;99132.72;5065817;28;20086;-77
2024/02/12 04:41:59;;;;;;;19.08;10.25;;;;;;;4.57;100.00;99130.41;5034584;28;19916;-77
2024/02/12 04:44:25;;;;;;;22.95;10.38;;;;;;;4.53;100.00;99126.41;5065302;28;20024;-77
2024/02/12 04:46:51;;;;;;;25.05;10.27;;;;;;;4.53;100.00;99121.13;5059669;28;20040;-76
2024/02/12 04:49:16;;;;;;;22.33;9.70;;;;;;;4.55;100.00;99128.91;5056959;28;20040;-76
2024/02/12 04:51:42;;;;;;;46.00;13.73;;;;;;;4.47;100.00;99124.41;5051714;28;20036;-77
2024/02/12 04:54:09;;;;;;;33.22;11.13;;;;;;;4.43;100.00;99117.84;5034260;28;20075;-77
2024/02/12 04:56:35;;;;;;;20.83;9.40;;;;;;;4.46;100.00;99120.13;5057588;28;20028;-77
2024/02/12 04:59:01;;;;;;;37.15;11.55;;;;;;;4.47;100.00;99132.34;5056697;28;20051;-79
2024/02/12 05:01:26;;;;;;;24.95;10.90;;;;;;;4.49;100.00;99132.19;5051968;28;20068;-77
2024/02/12 05:03:53;;;;;;;21.88;9.52;;;;;;;4.50;100.00;99145.25;5036099;28;20037;-78
2024/02/12 05:06:19;;;;;;;22.63;9.85;;;;;;;4.46;100.00;99130.72;5051235;28;20121;-77
2024/02/12 05:08:46;;;;;;;22.95;10.55;;;;;;;4.52;100.00;99148.56;5051610;28;20343;-77
2024/02/12 05:11:12;;;;;;;24.15;10.23;;;;;;;4.47;100.00;99136.81;5059162;28;20079;-77
2024/02/12 05:13:38;;;;;;;26.63;12.30;;;;;;;4.44;100.00;99132.69;5053697;28;20496;-77
2024/02/12 05:16:07;;;;;;;23.50;10.95;;;;;;;4.51;100.00;99149.53;5053342;28;20033;-77
2024/02/12 05:24:13;;;;;;;23.17;10.70;;;;;;;4.50;100.00;99150.53;5044928;28;20044;-77
2024/02/12 05:26:39;;;;;;;22.67;11.17;;;;;;;4.50;100.00;99147.91;5059291;28;20942;-77
2024/02/12 05:29:06;;;;;;;28.58;11.25;;;;;;;4.54;100.00;99154.53;5069506;28;20668;-77
2024/02/12 05:31:33;;;;;;;30.13;10.82;;;;;;;4.44;100.00;99152.00;5057447;28;20046;-77
2024/02/12 05:33:58;;;;;;;25.75;10.90;;;;;;;4.47;100.00;99153.50;5047867;28;20028;-78
2024/02/12 05:36:24;;;;;;;36.30;12.23;;;;;;;4.47;100.00;99150.03;5057087;28;20048;-77
2024/02/12 05:38:50;;;;;;;31.77;12.50;;;;;;;4.44;100.00;99138.78;5036589;28;20406;-77
2024/02/12 05:41:15;;;;;;;;;;;;;;;4.47;100.00;99156.13;5054219;28;20773;-77
2024/02/12 05:43:41;;;;;;;31.02;11.18;;;;;;;4.45;100.00;99155.50;5054277;28;19908;-77
2024/02/12 05:46:06;;;;;;;34.92;12.88;;;;;;;4.41;100.00;99154.97;5054375;28;20040;-78
2024/02/12 05:48:32;;;;;;;25.05;11.55;;;;;;;4.44;100.00;99161.75;5063860;28;20037;-78
2024/02/12 05:50:58;;;;;;;30.50;11.85;;;;;;;4.44;100.00;99161.75;5060839;28;20033;-77
2024/02/12 05:53:28;;;;;;;33.88;13.65;;;;;;;4.43;100.00;99152.19;5068766;28;20679;-77
2024/02/12 05:55:55;;;;;;;31.90;13.63;;;;;;;4.38;100.00;99157.13;5034192;28;20036;-76
2024/02/12 05:58:23;;;;;;;36.67;13.75;;;;;;;4.42;100.00;99161.09;5032980;28;20036;-78
2024/02/12 06:00:49;;;;;;;34.03;13.93;;;;;;;4.42;100.00;99166.38;5066039;28;20123;-77
2024/02/12 06:03:14;;;;;;;28.42;13.88;;;;;;;4.43;100.00;99174.16;5067333;28;20095;-77
2024/02/12 06:05:40;;;;;;;31.53;12.93;;;;;;;4.48;100.00;99181.59;5066629;28;20140;-77
2024/02/12 06:08:07;;;;;;;27.50;12.57;;;;;;;4.48;100.00;99186.88;5049045;28;20109;-77
2024/02/12 06:10:33;;;;;;;37.50;14.00;;;;;;;4.52;100.00;99184.72;5062929;28;20310;-76
2024/02/12 06:12:58;;;;;;;37.72;15.13;;;;;;;4.49;100.00;99191.16;5066356;28;20137;-77
2024/02/12 06:15:23;;;;;;;26.60;12.50;;;;;;;4.47;100.00;99181.75;5035213;28;20032;-76
2024/02/12 06:17:49;;;;;;;31.60;12.88;;;;;;;4.51;100.00;99191.81;5044951;28;20033;-77
2024/02/12 06:20:14;;;;;;;33.37;11.77;;;;;;;4.57;100.00;99201.78;5044326;28;20874;-77
2024/02/12 06:22:41;;;;;;;26.70;11.25;;;;;;;4.54;100.00;99207.38;5044155;28;20289;-78
2024/02/12 06:25:09;;;;;;;26.98;11.80;;;;;;;4.56;100.00;99215.13;5049493;28;20059;-77
2024/02/12 06:27:35;;;;;;;25.15;11.98;;;;;;;4.54;100.00;99207.38;5021494;28;20488;-77
2024/02/12 06:30:00;;;;;;;30.02;13.65;;;;;;;4.59;100.00;99218.31;5035298;28;20054;-77
2024/02/12 06:32:25;;;;;;;29.42;13.77;;;;;;;4.57;100.00;99220.28;5034414;28;20128;-77
2024/02/12 06:34:51;;;;;;;29.60;12.07;;;;;;;4.55;100.00;99219.59;5021319;28;20025;-78
2024/02/12 06:37:16;;;;;;;30.20;12.77;;;;;;;4.60;100.00;99221.75;5043548;28;20041;-77
2024/02/12 06:39:42;;;;;;;53.95;15.98;;;;;;;4.59;100.00;99220.94;5051628;28;20028;-78
2024/02/12 06:42:09;;;;;;;34.78;13.82;;;;;;;4.57;100.00;99217.63;5051926;28;20487;-76
2024/02/12 06:44:34;;;;;;;;;;;;;;;4.59;100.00;99215.66;5051654;28;20515;-77
2024/02/12 06:46:59;;;;;;;24.83;12.05;;;;;;;4.51;100.00;99207.69;5034227;28;19932;-77
2024/02/12 06:49:25;;;;;;;44.13;16.43;;;;;;;4.58;100.00;99218.44;5051215;28;20496;-77
2024/02/12 06:51:50;;;;;;;34.22;15.13;;;;;;;4.57;100.00;99217.63;5053364;28;20290;-77
2024/02/12 06:54:16;;;;;;;36.40;14.32;;;;;;;4.55;100.00;99224.06;5034603;28;20634;-76
2024/02/12 06:56:42;;;;;;;35.03;13.93;;;;;;;4.54;100.00;99223.25;5050906;28;20076;-77
2024/02/12 06:59:08;;;;;;;36.92;14.13;;;;;;;4.58;100.00;99231.66;5052537;28;20146;-77
2024/02/12 07:01:33;;;;;;;33.75;14.65;;;;;;;4.59;100.00;99235.97;5033756;28;20033;-76
2024/02/12 07:03:59;;;;;;;40.20;15.57;;;;;;;4.65;100.00;99245.88;5036216;28;20057;-77
2024/02/12 07:06:25;;;;;;;32.47;12.13;;;;;;;4.55;100.00;99243.38;5045080;28;20422;-77
2024/02/12 07:08:51;;;;;;;31.63;14.57;;;;;;;4.60;100.00;99248.19;5046396;28;20033;-77
2024/02/12 07:11:16;;;;;;;34.70;14.53;;;;;;;4.57;100.00;99249.34;5065122;28;20392;-77
2024/02/12 07:13:41;;;;;;;30.73;13.93;;;;;;;4.69;100.00;99267.56;5033375;28;20287;-77
2024/02/12 07:16:08;;;;;;;30.60;13.57;;;;;;;4.67;100.00;99261.59;5041334;28;20278;-77
2024/02/12 07:18:33;;;;;;;35.78;14.73;;;;;;;4.73;100.00;99279.44;5042280;28;20033;-77
2024/02/12 07:20:59;;;;;;;30.52;14.32;;;;;;;4.70;100.00;99277.94;5029457;28;20095;-77
2024/02/12 07:23:24;;;;;;;35.33;15.95;;;;;;;4.67;100.00;99266.88;5048734;28;20036;-77
2024/02/12 07:25:50;;;;;;;58.25;18.42;;;;;;;4.67;100.00;99266.88;5051167;28;20385;-76
2024/02/12 07:28:15;;;;;;;35.22;14.77;;;;;;;4.71;100.00;99271.69;5050299;28;20381;-78
2024/02/12 07:30:42;;;;;;;31.67;14.40;;;;;;;4.71;100.00;99271.69;5050983;28;20108;-77
2024/02/12 07:33:08;;;;;;;79.05;20.60;;;;;;;4.72;100.00;99278.63;5047823;28;20035;-77
2024/02/12 07:35:33;;;;;;;31.38;15.15;;;;;;;4.70;100.00;99269.19;5033889;28;20020;-77
2024/02/12 07:37:59;;;;;;;35.90;14.80;;;;;;;4.75;100.00;99282.75;5044335;28;20064;-77
2024/02/12 07:40:24;;;;;;;31.17;14.90;;;;;;;4.79;100.00;99289.38;5051031;28;20498;-77
2024/02/12 07:42:49;;;;;;;30.98;14.90;;;;;;;4.85;100.00;99299.34;5050496;28;20103;-77
2024/02/12 07:45:15;;;;;;;33.55;15.25;;;;;;;4.92;100.00;99310.09;5050578;28;20048;-77
2024/02/12 07:47:43;;;;;;;35.83;14.25;;;;;;;4.91;100.00;99317.19;5032956;28;20043;-77
2024/02/12 07:50:09;;;;;;;43.15;17.42;;;;;;;4.90;100.00;99304.97;5047527;28;20036;-77
2024/02/12 07:52:35;;;;;;;41.70;15.73;;;;;;;4.93;100.00;99315.22;5041898;28;20705;-77
2024/02/12 07:55:01;;;;;;;41.33;16.88;;;;;;;4.87;100.00;99313.22;5048989;28;20139;-77
2024/02/12 07:57:27;;;;;;;39.28;14.82;;;;;;;4.99;100.00;99327.81;5020898;28;20068;-77
2024/02/12 07:59:53;;;;;;;40.55;13.90;;;;;;;5.01;100.00;99325.84;5041922;28;20077;-77
2024/02/12 08:02:18;;;;;;;41.72;16.27;;;;;;;5.04;100.00;99336.09;5027473;28;20053;-77
2024/02/12 08:04:44;;;;;;;50.87;16.27;;;;;;;5.05;100.00;99336.91;5046102;28;20108;-78
2024/02/12 08:07:10;;;;;;;39.92;15.43;;;;;;;5.04;100.00;99325.50;5032875;28;20044;-76
2024/02/12 08:09:36;;;;;;;50.45;16.27;;;;;;;5.02;100.00;99319.53;5049036;28;20037;-76
2024/02/12 08:12:05;;;;;;;32.15;14.43;;;;;;;5.05;100.00;99321.84;5026215;28;20045;-77
2024/02/12 08:14:33;;;;;;;34.28;13.77;;;;;;;5.10;100.00;99331.13;5036859;28;20036;-77
2024/02/12 08:16:59;;;;;;;41.05;14.95;;;;;;;5.06;100.00;99328.81;5052174;28;20032;-77
2024/02/12 08:19:24;;;;;;;43.45;16.95;;;;;;;5.14;100.00;99337.75;5054677;28;20471;-77
2024/02/12 08:21:50;;;;;;;49.00;16.23;;;;;;;5.16;100.00;99330.50;5047926;28;20148;-77
2024/02/12 08:24:17;;;;;;;39.33;14.38;;;;;;;5.23;100.00;99340.25;5031786;28;20040;-77
2024/02/12 08:26:42;;;;;;;109.50;21.05;;;;;;;5.23;100.00;99334.13;5046311;28;20591;-77
2024/02/12 08:29:07;;;;;;;40.78;16.10;;;;;;;5.31;100.00;99347.38;5050308;28;20130;-77
2024/02/12 08:31:33;;;;;;;75.07;19.93;;;;;;;5.20;100.00;99337.13;5031763;28;20055;-77
2024/02/12 08:33:59;;;;;;;59.10;19.50;;;;;;;5.31;100.00;99347.38;5031622;28;20374;-77
2024/02/12 08:36:24;;;;;;;;;;;;;;;5.38;100.00;99353.66;5056411;28;20040;-76
2024/02/12 08:38:50;;;;;;;75.25;19.55;;;;;;;5.33;100.00;99345.41;5049608;28;19921;-77
2024/02/12 08:41:23;;;;;;;63.45;18.88;;;;;;;5.36;100.00;99352.19;5042818;28;20132;-77
2024/02/12 08:43:50;;;;;;;68.78;20.92;;;;;;;5.31;100.00;99346.56;5057186;28;20651;-76
2024/02/12 08:46:15;;;;;;;148.73;26.40;;;;;;;5.32;100.00;99353.53;5051180;28;20036;-77
2024/02/12 08:48:41;;;;;;;65.07;19.95;;;;;;;5.36;100.00;99363.63;5037412;28;20038;-77
2024/02/12 08:51:08;;;;;;;73.75;21.25;;;;;;;5.38;100.00;99369.56;5036399;28;20039;-77
2024/02/12 08:53:39;;;;;;;75.88;20.52;;;;;;;5.39;100.00;99381.00;5045542;28;20033;-77
2024/02/12 08:56:05;;;;;;;67.13;20.05;;;;;;;5.47;100.00;99379.16;5017724;28;20197;-77
2024/02/12 08:58:30;;;;;;;72.85;22.08;;;;;;;5.53;100.00;99383.00;5036824;28;20499;-77
2024/02/12 09:00:56;;;;;;;75.90;22.67;;;;;;;5.53;100.00;99376.88;5061244;28;20037;-77
2024/02/12 09:03:21;;;;;;;80.43;21.67;;;;;;;5.58;100.00;99393.91;5058280;28;20299;-78
2024/02/12 09:05:47;;;;;;;91.67;22.77;;;;;;;5.62;100.00;99395.25;5042459;28;20040;-76
2024/02/12 09:08:15;;;;;;;70.90;21.38;;;;;;;5.65;100.00;99396.75;5038493;28;20074;-76
2024/02/12 09:10:42;;;;;;;57.80;20.08;;;;;;;5.73;100.00;99415.28;5051751;28;20048;-77
2024/02/12 09:13:07;;;;;;;71.00;24.60;;;;;;;5.79;100.00;99417.28;5051275;28;20032;-77
2024/02/12 09:15:32;;;;;;;73.32;20.67;;;;;;;5.88;100.00;99418.94;5033618;28;20044;-76
2024/02/12 09:17:58;;;;;;;62.37;21.40;;;;;;;5.94;100.00;99420.13;5040010;28;20033;-76
2024/02/12 09:20:23;;;;;;;61.75;21.90;;;;;;;6.03;100.00;99442.16;5026617;28;20284;-77
2024/02/12 09:22:49;;;;;;;60.85;19.67;;;;;;;6.12;100.00;99447.28;5044265;28;20033;-76
2024/02/12 09:25:14;;;;;;;56.05;17.48;;;;;;;6.10;100.00;99451.09;5065289;28;20043;-76
2024/02/12 09:27:45;;;;;;;56.58;17.88;;;;;;;6.19;100.00;99457.25;5050600;28;20041;-76
2024/02/12 09:30:11;;;;;;;55.13;16.00;;;;;;;6.17;100.00;99462.69;5048128;28;20048;-77
2024/02/12 09:32:42;;;;;;;34.42;12.75;;;;;;;6.15;100.00;99469.16;5041141;28;20082;-76
2024/02/12 09:35:08;;;;;;;41.53;14.05;;;;;;;6.20;100.00;99474.78;5044073;28;20051;-77
2024/02/12 09:37:34;;;;;;;30.35;12.10;;;;;;;6.32;100.00;99490.22;5067757;28;20119;-76
2024/02/12 09:40:02;;;;;;;34.17;11.85;;;;;;;6.30;100.00;99489.56;5059517;28;20973;-77
2024/02/12 09:42:32;;;;;;;29.52;10.15;;;;;;;6.30;100.00;99486.91;5067586;28;20072;-76
2024/02/12 09:44:59;;;;;;;26.27;9.60;;;;;;;6.40;100.00;99496.50;5059139;28;20123;-76
2024/02/12 09:47:26;;;;;;;35.97;10.38;;;;;;;6.45;100.00;99500.31;5053297;28;20083;-76
2024/02/12 09:49:54;;;;;;;24.90;9.25;;;;;;;6.51;100.00;99498.84;5046218;28;20486;-77
2024/02/12 09:52:21;;;;;;;25.88;9.15;;;;;;;6.50;100.00;99492.69;5053385;28;20043;-76
2024/02/12 09:54:51;;;;;;;25.85;8.65;;;;;;;6.52;100.00;99500.47;5051301;28;20063;-77
2024/02/12 09:57:16;;;;;;;24.38;8.40;;;;;;;6.68;100.00;99510.25;5044077;28;20026;-76
2024/02/12 09:59:43;;;;;;;20.83;8.52;;;;;;;6.60;100.00;99505.75;5047706;28;20462;-76
2024/02/12 10:02:09;;;;;;;18.08;7.55;;;;;;;6.74;100.00;99515.72;5055349;28;20496;-77
2024/02/12 10:04:35;;;;;;;15.90;7.15;;;;;;;6.68;100.00;99513.72;5057001;28;20044;-76
2024/02/12 10:07:02;;;;;;;24.38;7.70;;;;;;;6.83;100.00;99513.03;5066670;28;20033;-77
2024/02/12 10:09:28;;;;;;;23.27;7.07;;;;;;;7.08;100.00;99521.78;5067312;28;20447;-76
2024/02/12 10:11:54;;;;;;;15.67;6.97;;;;;;;7.01;100.00;99516.31;5039699;28;20076;-77
2024/02/12 10:14:30;;;;;;;14.57;6.47;;;;;;;6.90;100.00;99498.09;5067071;28;20603;-77
2024/02/12 10:16:56;;;;;;;16.88;6.43;;;;;;;6.99;100.00;99497.09;5066979;28;20044;-76
2024/02/12 10:19:22;;;;;;;18.65;5.82;;;;;;;7.15;100.00;99505.00;5068334;28;20024;-77
2024/02/12 10:21:51;;;;;;;26.55;6.35;;;;;;;7.37;100.00;99494.63;5050835;28;20033;-77
2024/02/12 10:24:18;;;;;;;14.70;6.00;;;;;;;7.46;100.00;99495.44;5068031;28;20032;-76
2024/02/12 10:26:48;;;;;;;14.30;5.43;;;;;;;7.29;100.00;99474.25;5049923;28;20078;-76
2024/02/12 10:29:14;;;;;;;16.17;5.30;;;;;;;7.27;100.00;99468.28;5067047;28;20024;-76
2024/02/12 10:31:40;;;;;;;13.60;5.80;;;;;;;7.45;100.00;99465.41;5068242;28;20568;-76
2024/02/12 10:34:09;;;;;;;16.50;5.55;;;;;;;7.53;100.00;99462.69;5049774;28;20040;-76
2024/02/12 10:36:35;;;;;;;12.63;5.38;;;;;;;7.50;100.00;99455.06;5043208;28;20140;-76
2024/02/12 10:39:03;;;;;;;25.27;4.95;;;;;;;7.50;100.00;99447.09;5055936;28;20147;-76
2024/02/12 10:41:32;;;;;;;16.50;6.07;;;;;;;7.63;100.00;99441.22;5049845;28;20036;-76
2024/02/12 10:43:58;;;;;;;14.32;4.93;;;;;;;7.68;100.00;99446.00;5067393;28;20031;-76
2024/02/12 10:46:37;;;;;;;19.52;4.93;;;;;;;7.70;100.00;99452.81;5067664;28;20021;-76
2024/02/12 10:49:04;;;;;;;18.13;5.82;;;;;;;7.61;100.00;99436.09;5049654;28;20143;-76
2024/02/12 10:51:29;;;;;;;12.00;4.10;;;;;;;7.68;100.00;99443.34;5067409;28;20036;-76
2024/02/12 10:53:55;;;;;;;11.55;4.00;;;;;;;7.84;100.00;99451.22;5067361;28;20043;-76
2024/02/12 10:56:22;;;;;;;13.23;3.85;;;;;;;8.05;100.00;99445.25;5066226;28;20043;-75
2024/02/12 10:58:48;;;;;;;15.60;3.10;;;;;;;7.98;100.00;99418.59;5049597;28;20398;-76
2024/02/12 11:01:15;;;;;;;15.50;4.43;;;;;;;7.98;100.00;99399.97;5067571;28;20033;-75
2024/02/12 11:03:47;;;;;;;10.57;2.67;;;;;;;8.18;100.00;99399.47;5067430;28;20033;-76
2024/02/12 11:06:16;;;;;;;10.63;3.70;;;;;;;8.08;100.00;99385.59;5061822;28;20036;-76
2024/02/12 11:08:42;;;;;;;17.38;3.45;;;;;;;8.17;100.00;99392.47;5053628;28;20036;-76
2024/02/12 11:11:18;;;;;;;10.02;2.88;;;;;;;8.07;100.00;99368.00;5054032;28;20128;-76
2024/02/12 11:13:46;;;;;;;13.77;3.30;;;;;;;8.16;100.00;99364.25;5054022;28;20036;-76
2024/02/12 11:16:16;;;;;;;14.13;3.35;;;;;;;8.12;100.00;99350.50;5040622;28;20399;-76
2024/02/12 11:18:41;;;;;;;10.45;3.60;;;;;;;8.34;100.00;99355.94;5055053;28;20098;-75
2024/02/12 11:21:09;;;;;;;9.45;2.35;;;;;;;8.42;100.00;99334.59;5048164;28;20025;-75
2024/02/12 11:23:41;;;;;;;10.82;2.80;;;;;;;8.72;100.00;99345.25;5041903;28;20100;-76
2024/02/12 11:26:07;;;;;;;7.88;2.90;;;;;;;8.76;100.00;99326.06;5039301;28;20033;-75
2024/02/12 11:28:32;;;;;;;9.65;2.65;;;;;;;8.81;100.00;99291.75;5061356;28;20094;-76
2024/02/12 11:30:59;;;;;;;11.55;3.50;;;;;;;8.80;100.00;99268.81;5047959;28;20065;-75
2024/02/12 11:33:24;;;;;;;6.50;3.05;;;;;;;8.88;100.00;99252.72;5044724;28;20074;-75
2024/02/12 11:36:10;;;;;;;18.33;3.05;;;;;;;9.09;100.00;99256.44;5064805;28;20503;-77